sensor_id;sensor_type;location;lat;lon;timestamp;P1;durP1;ratioP1;P2;durP2;ratioP2
22774;SDS011;11554;51.106;3.684;2022-11-20T00:00:00;79.50;;;36.70;;
22774;SDS011;11554;51.106;3.684;2022-11-20T00:05:00;79.50;;;36.70;;
22774;SDS011;11554;51.106;3.684;2022-11-20T00:10:00;77.80;;;37.00;;
22774;SDS011;11554;51.106;3.684;2022-11-20T00:15:00;77.80;;;37.00;;
22774;SDS011;11554;51.106;3.684;2022-11-20T00:20:00;88.10;;;39.10;;
22774;SDS011;11554;51.106;3.684;2022-11-20T00:25:00;88.10;;;39.10;;
22774;SDS011;11554;51.106;3.684;2022-11-20T00:30:00;84.10;;;37.10;;
22774;SDS011;11554;51.106;3.684;2022-11-20T00:35:00;84.10;;;37.10;;
22774;SDS011;11554;51.106;3.684;2022-11-20T00:40:00;88.60;;;39.00;;
22774;SDS011;11554;51.106;3.684;2022-11-20T00:45:00;88.60;;;39.00;;
22774;SDS011;11554;51.106;3.684;2022-11-20T00:50:00;84.40;;;38.00;;
22774;SDS011;11554;51.106;3.684;2022-11-20T00:55:00;84.40;;;38.00;;
22774;SDS011;11554;51.106;3.684;2022-11-20T01:00:00;91.30;;;38.40;;
22774;SDS011;11554;51.106;3.684;2022-11-20T01:05:00;91.30;;;38.40;;
22774;SDS011;11554;51.106;3.684;2022-11-20T01:10:00;81.20;;;34.20;;
22774;SDS011;11554;51.106;3.684;2022-11-20T01:15:00;81.20;;;34.20;;
22774;SDS011;11554;51.106;3.684;2022-11-20T01:20:00;75.10;;;34.30;;
22774;SDS011;11554;51.106;3.684;2022-11-20T01:25:00;75.10;;;34.30;;
22774;SDS011;11554;51.106;3.684;2022-11-20T01:30:00;73.10;;;33.20;;
22774;SDS011;11554;51.106;3.684;2022-11-20T01:35:00;73.10;;;33.20;;
22774;SDS011;11554;51.106;3.684;2022-11-20T01:40:00;70.70;;;32.90;;
22774;SDS011;11554;51.106;3.684;2022-11-20T01:45:00;70.70;;;32.90;;
22774;SDS011;11554;51.106;3.684;2022-11-20T01:50:04;68.70;;;31.90;;
22774;SDS011;11554;51.106;3.684;2022-11-20T01:55:03;68.70;;;31.90;;
22774;SDS011;11554;51.106;3.684;2022-11-20T02:00:04;71.80;;;32.90;;
22774;SDS011;11554;51.106;3.684;2022-11-20T02:05:03;71.80;;;32.90;;
22774;SDS011;11554;51.106;3.684;2022-11-20T02:10:00;76.80;;;33.80;;
22774;SDS011;11554;51.106;3.684;2022-11-20T02:15:00;76.80;;;33.80;;
22774;SDS011;11554;51.106;3.684;2022-11-20T02:20:00;68.30;;;30.80;;
22774;SDS011;11554;51.106;3.684;2022-11-20T02:25:02;68.30;;;30.80;;
22774;SDS011;11554;51.106;3.684;2022-11-20T02:30:02;75.30;;;34.70;;
22774;SDS011;11554;51.106;3.684;2022-11-20T02:35:06;75.30;;;34.70;;
22774;SDS011;11554;51.106;3.684;2022-11-20T02:40:00;65.20;;;29.60;;
22774;SDS011;11554;51.106;3.684;2022-11-20T02:45:00;65.20;;;29.60;;
22774;SDS011;11554;51.106;3.684;2022-11-20T02:50:01;60.70;;;29.20;;
22774;SDS011;11554;51.106;3.684;2022-11-20T02:55:00;60.70;;;29.20;;
22774;SDS011;11554;51.106;3.684;2022-11-20T03:00:00;62.80;;;29.90;;
22774;SDS011;11554;51.106;3.684;2022-11-20T03:05:00;62.80;;;29.90;;
22774;SDS011;11554;51.106;3.684;2022-11-20T03:10:00;63.60;;;31.00;;
22774;SDS011;11554;51.106;3.684;2022-11-20T03:15:00;63.60;;;31.00;;
22774;SDS011;11554;51.106;3.684;2022-11-20T03:20:00;63.20;;;29.90;;
22774;SDS011;11554;51.106;3.684;2022-11-20T03:25:00;63.20;;;29.90;;
22774;SDS011;11554;51.106;3.684;2022-11-20T03:30:00;64.70;;;29.80;;
22774;SDS011;11554;51.106;3.684;2022-11-20T03:35:00;64.70;;;29.80;;
22774;SDS011;11554;51.106;3.684;2022-11-20T03:40:00;65.50;;;30.70;;
22774;SDS011;11554;51.106;3.684;2022-11-20T03:45:00;65.50;;;30.70;;
22774;SDS011;11554;51.106;3.684;2022-11-20T03:50:00;63.00;;;29.50;;
22774;SDS011;11554;51.106;3.684;2022-11-20T03:55:00;63.00;;;29.50;;
22774;SDS011;11554;51.106;3.684;2022-11-20T04:00:00;57.90;;;28.10;;
22774;SDS011;11554;51.106;3.684;2022-11-20T04:05:00;57.90;;;28.10;;
22774;SDS011;11554;51.106;3.684;2022-11-20T04:10:00;58.60;;;27.10;;
22774;SDS011;11554;51.106;3.684;2022-11-20T04:15:00;58.60;;;27.10;;
22774;SDS011;11554;51.106;3.684;2022-11-20T04:20:00;58.60;;;28.00;;
22774;SDS011;11554;51.106;3.684;2022-11-20T04:25:00;58.60;;;28.00;;
22774;SDS011;11554;51.106;3.684;2022-11-20T04:30:00;52.90;;;26.40;;
22774;SDS011;11554;51.106;3.684;2022-11-20T04:35:00;52.90;;;26.40;;
22774;SDS011;11554;51.106;3.684;2022-11-20T04:40:00;59.20;;;26.60;;
22774;SDS011;11554;51.106;3.684;2022-11-20T04:45:00;59.20;;;26.60;;
22774;SDS011;11554;51.106;3.684;2022-11-20T04:50:00;55.10;;;26.20;;
22774;SDS011;11554;51.106;3.684;2022-11-20T04:55:00;55.10;;;26.20;;
22774;SDS011;11554;51.106;3.684;2022-11-20T05:00:00;56.50;;;25.50;;
22774;SDS011;11554;51.106;3.684;2022-11-20T05:05:00;56.50;;;25.50;;
22774;SDS011;11554;51.106;3.684;2022-11-20T05:10:00;54.40;;;26.00;;
22774;SDS011;11554;51.106;3.684;2022-11-20T05:15:00;54.40;;;26.00;;
22774;SDS011;11554;51.106;3.684;2022-11-20T05:20:00;51.50;;;25.10;;
22774;SDS011;11554;51.106;3.684;2022-11-20T05:25:00;51.50;;;25.10;;
22774;SDS011;11554;51.106;3.684;2022-11-20T05:30:00;55.10;;;25.30;;
22774;SDS011;11554;51.106;3.684;2022-11-20T05:35:00;55.10;;;25.30;;
22774;SDS011;11554;51.106;3.684;2022-11-20T05:40:00;58.50;;;26.20;;
22774;SDS011;11554;51.106;3.684;2022-11-20T05:45:02;58.50;;;26.20;;
22774;SDS011;11554;51.106;3.684;2022-11-20T05:50:00;58.50;;;26.30;;
22774;SDS011;11554;51.106;3.684;2022-11-20T05:55:00;58.50;;;26.30;;
22774;SDS011;11554;51.106;3.684;2022-11-20T06:00:00;70.40;;;28.30;;
22774;SDS011;11554;51.106;3.684;2022-11-20T06:05:00;70.40;;;28.30;;
22774;SDS011;11554;51.106;3.684;2022-11-20T06:10:00;72.80;;;30.00;;
22774;SDS011;11554;51.106;3.684;2022-11-20T06:15:00;72.80;;;30.00;;
22774;SDS011;11554;51.106;3.684;2022-11-20T06:20:00;72.40;;;30.60;;
22774;SDS011;11554;51.106;3.684;2022-11-20T06:25:00;72.40;;;30.60;;
22774;SDS011;11554;51.106;3.684;2022-11-20T06:30:00;75.10;;;29.30;;
22774;SDS011;11554;51.106;3.684;2022-11-20T06:35:00;75.10;;;29.30;;
22774;SDS011;11554;51.106;3.684;2022-11-20T06:40:00;69.80;;;28.30;;
22774;SDS011;11554;51.106;3.684;2022-11-20T06:45:00;69.80;;;28.30;;
22774;SDS011;11554;51.106;3.684;2022-11-20T06:50:00;73.00;;;29.20;;
22774;SDS011;11554;51.106;3.684;2022-11-20T06:55:00;73.00;;;29.20;;
22774;SDS011;11554;51.106;3.684;2022-11-20T07:00:00;59.20;;;26.20;;
22774;SDS011;11554;51.106;3.684;2022-11-20T07:05:00;59.20;;;26.20;;
22774;SDS011;11554;51.106;3.684;2022-11-20T07:10:00;66.00;;;28.90;;
22774;SDS011;11554;51.106;3.684;2022-11-20T07:15:00;66.00;;;28.90;;
22774;SDS011;11554;51.106;3.684;2022-11-20T07:20:00;66.00;;;26.90;;
22774;SDS011;11554;51.106;3.684;2022-11-20T07:25:00;66.00;;;26.90;;
22774;SDS011;11554;51.106;3.684;2022-11-20T07:30:00;65.30;;;26.60;;
22774;SDS011;11554;51.106;3.684;2022-11-20T07:35:00;65.30;;;26.60;;
22774;SDS011;11554;51.106;3.684;2022-11-20T07:40:00;64.50;;;24.50;;
22774;SDS011;11554;51.106;3.684;2022-11-20T07:45:00;64.50;;;24.50;;
22774;SDS011;11554;51.106;3.684;2022-11-20T07:50:00;63.20;;;24.50;;
22774;SDS011;11554;51.106;3.684;2022-11-20T07:55:00;63.20;;;24.50;;
22774;SDS011;11554;51.106;3.684;2022-11-20T08:00:00;59.40;;;25.80;;
22774;SDS011;11554;51.106;3.684;2022-11-20T08:05:00;59.40;;;25.80;;
22774;SDS011;11554;51.106;3.684;2022-11-20T08:10:00;61.70;;;24.50;;
22774;SDS011;11554;51.106;3.684;2022-11-20T08:15:00;61.70;;;24.50;;
22774;SDS011;11554;51.106;3.684;2022-11-20T08:20:00;64.20;;;25.90;;
22774;SDS011;11554;51.106;3.684;2022-11-20T08:25:00;64.20;;;25.90;;
22774;SDS011;11554;51.106;3.684;2022-11-20T08:30:00;65.80;;;26.60;;
22774;SDS011;11554;51.106;3.684;2022-11-20T08:35:00;65.80;;;26.60;;
22774;SDS011;11554;51.106;3.684;2022-11-20T08:40:00;58.90;;;24.50;;
22774;SDS011;11554;51.106;3.684;2022-11-20T08:45:00;58.90;;;24.50;;
22774;SDS011;11554;51.106;3.684;2022-11-20T08:50:00;68.80;;;27.20;;
22774;SDS011;11554;51.106;3.684;2022-11-20T08:55:00;68.80;;;27.20;;
22774;SDS011;11554;51.106;3.684;2022-11-20T09:00:00;62.90;;;25.60;;
22774;SDS011;11554;51.106;3.684;2022-11-20T09:05:00;62.90;;;25.60;;
22774;SDS011;11554;51.106;3.684;2022-11-20T09:10:00;60.00;;;23.80;;
22774;SDS011;11554;51.106;3.684;2022-11-20T09:15:00;60.00;;;23.80;;
22774;SDS011;11554;51.106;3.684;2022-11-20T09:20:00;58.60;;;26.10;;
22774;SDS011;11554;51.106;3.684;2022-11-20T09:25:00;58.60;;;26.10;;
22774;SDS011;11554;51.106;3.684;2022-11-20T09:30:00;56.70;;;24.80;;
22774;SDS011;11554;51.106;3.684;2022-11-20T09:35:00;56.70;;;24.80;;
22774;SDS011;11554;51.106;3.684;2022-11-20T09:40:00;56.10;;;24.70;;
22774;SDS011;11554;51.106;3.684;2022-11-20T09:45:20;56.10;;;24.70;;
22774;SDS011;11554;51.106;3.684;2022-11-20T09:50:12;49.90;;;22.50;;
22774;SDS011;11554;51.106;3.684;2022-11-20T09:55:02;49.90;;;22.50;;
22774;SDS011;11554;51.106;3.684;2022-11-20T10:00:02;47.30;;;20.80;;
22774;SDS011;11554;51.106;3.684;2022-11-20T10:05:06;47.30;;;20.80;;
22774;SDS011;11554;51.106;3.684;2022-11-20T10:10:00;61.90;;;39.90;;
22774;SDS011;11554;51.106;3.684;2022-11-20T10:15:10;61.90;;;39.90;;
22774;SDS011;11554;51.106;3.684;2022-11-20T10:20:14;36.20;;;17.10;;
22774;SDS011;11554;51.106;3.684;2022-11-20T10:25:05;36.20;;;17.10;;
22774;SDS011;11554;51.106;3.684;2022-11-20T10:30:02;35.10;;;19.30;;
22774;SDS011;11554;51.106;3.684;2022-11-20T10:35:03;35.10;;;19.30;;
22774;SDS011;11554;51.106;3.684;2022-11-20T10:40:05;27.70;;;14.90;;
22774;SDS011;11554;51.106;3.684;2022-11-20T10:45:13;27.70;;;14.90;;
22774;SDS011;11554;51.106;3.684;2022-11-20T10:50:02;29.40;;;16.10;;
22774;SDS011;11554;51.106;3.684;2022-11-20T10:55:09;29.40;;;16.10;;
22774;SDS011;11554;51.106;3.684;2022-11-20T11:00:04;18.60;;;9.00;;
22774;SDS011;11554;51.106;3.684;2022-11-20T11:05:08;18.60;;;9.00;;
22774;SDS011;11554;51.106;3.684;2022-11-20T11:10:00;13.60;;;7.90;;
22774;SDS011;11554;51.106;3.684;2022-11-20T11:15:00;13.60;;;7.90;;
22774;SDS011;11554;51.106;3.684;2022-11-20T11:20:03;12.00;;;4.90;;
22774;SDS011;11554;51.106;3.684;2022-11-20T11:25:00;12.00;;;4.90;;
22774;SDS011;11554;51.106;3.684;2022-11-20T11:30:11;9.60;;;4.30;;
22774;SDS011;11554;51.106;3.684;2022-11-20T11:35:00;9.60;;;4.30;;
22774;SDS011;11554;51.106;3.684;2022-11-20T11:40:01;12.00;;;4.10;;
22774;SDS011;11554;51.106;3.684;2022-11-20T11:45:00;12.00;;;4.10;;
22774;SDS011;11554;51.106;3.684;2022-11-20T11:50:01;7.60;;;3.50;;
22774;SDS011;11554;51.106;3.684;2022-11-20T11:55:02;7.60;;;3.50;;
22774;SDS011;11554;51.106;3.684;2022-11-20T12:00:03;8.20;;;3.00;;
22774;SDS011;11554;51.106;3.684;2022-11-20T12:05:05;8.20;;;3.00;;
22774;SDS011;11554;51.106;3.684;2022-11-20T12:10:01;8.60;;;3.60;;
22774;SDS011;11554;51.106;3.684;2022-11-20T12:15:00;8.60;;;3.60;;
22774;SDS011;11554;51.106;3.684;2022-11-20T12:20:00;10.70;;;3.80;;
22774;SDS011;11554;51.106;3.684;2022-11-20T12:25:04;10.70;;;3.80;;
22774;SDS011;11554;51.106;3.684;2022-11-20T12:30:04;12.60;;;7.00;;
22774;SDS011;11554;51.106;3.684;2022-11-20T12:35:05;12.60;;;7.00;;
22774;SDS011;11554;51.106;3.684;2022-11-20T12:40:20;9.80;;;4.20;;
22774;SDS011;11554;51.106;3.684;2022-11-20T12:45:06;9.80;;;4.20;;
22774;SDS011;11554;51.106;3.684;2022-11-20T12:50:09;8.90;;;4.00;;
22774;SDS011;11554;51.106;3.684;2022-11-20T12:55:11;8.90;;;4.00;;
22774;SDS011;11554;51.106;3.684;2022-11-20T13:00:09;6.60;;;4.00;;
22774;SDS011;11554;51.106;3.684;2022-11-20T13:05:13;6.60;;;4.00;;
22774;SDS011;11554;51.106;3.684;2022-11-20T13:10:00;7.20;;;3.60;;
22774;SDS011;11554;51.106;3.684;2022-11-20T13:15:07;7.20;;;3.60;;
22774;SDS011;11554;51.106;3.684;2022-11-20T13:20:00;7.10;;;3.10;;
22774;SDS011;11554;51.106;3.684;2022-11-20T13:25:00;7.10;;;3.10;;
22774;SDS011;11554;51.106;3.684;2022-11-20T13:30:12;8.10;;;4.70;;
22774;SDS011;11554;51.106;3.684;2022-11-20T13:35:02;8.10;;;4.70;;
22774;SDS011;11554;51.106;3.684;2022-11-20T13:40:12;4.90;;;3.10;;
22774;SDS011;11554;51.106;3.684;2022-11-20T13:45:02;4.90;;;3.10;;
22774;SDS011;11554;51.106;3.684;2022-11-20T13:50:03;3.70;;;2.60;;
22774;SDS011;11554;51.106;3.684;2022-11-20T13:55:11;3.70;;;2.60;;
22774;SDS011;11554;51.106;3.684;2022-11-20T14:00:07;9.10;;;6.40;;
22774;SDS011;11554;51.106;3.684;2022-11-20T14:05:00;9.10;;;6.40;;
22774;SDS011;11554;51.106;3.684;2022-11-20T14:10:00;9.40;;;6.80;;
22774;SDS011;11554;51.106;3.684;2022-11-20T14:15:00;9.40;;;6.80;;
22774;SDS011;11554;51.106;3.684;2022-11-20T14:20:03;5.20;;;3.30;;
22774;SDS011;11554;51.106;3.684;2022-11-20T14:25:04;5.20;;;3.30;;
22774;SDS011;11554;51.106;3.684;2022-11-20T14:30:00;5.70;;;2.90;;
22774;SDS011;11554;51.106;3.684;2022-11-20T14:35:06;5.70;;;2.90;;
22774;SDS011;11554;51.106;3.684;2022-11-20T14:40:00;6.40;;;3.60;;
22774;SDS011;11554;51.106;3.684;2022-11-20T14:45:00;6.40;;;3.60;;
22774;SDS011;11554;51.106;3.684;2022-11-20T14:50:00;6.10;;;3.80;;
22774;SDS011;11554;51.106;3.684;2022-11-20T14:55:00;6.10;;;3.80;;
22774;SDS011;11554;51.106;3.684;2022-11-20T15:00:04;7.10;;;2.40;;
22774;SDS011;11554;51.106;3.684;2022-11-20T15:05:02;7.10;;;2.40;;
22774;SDS011;11554;51.106;3.684;2022-11-20T15:10:02;5.80;;;2.30;;
22774;SDS011;11554;51.106;3.684;2022-11-20T15:15:01;5.80;;;2.30;;
22774;SDS011;11554;51.106;3.684;2022-11-20T15:20:02;11.20;;;2.60;;
22774;SDS011;11554;51.106;3.684;2022-11-20T15:25:00;11.20;;;2.60;;
22774;SDS011;11554;51.106;3.684;2022-11-20T15:30:00;10.20;;;2.40;;
22774;SDS011;11554;51.106;3.684;2022-11-20T15:35:00;10.20;;;2.40;;
22774;SDS011;11554;51.106;3.684;2022-11-20T15:40:00;9.50;;;1.70;;
22774;SDS011;11554;51.106;3.684;2022-11-20T15:45:00;9.50;;;1.70;;
22774;SDS011;11554;51.106;3.684;2022-11-20T15:50:00;15.00;;;2.80;;
22774;SDS011;11554;51.106;3.684;2022-11-20T15:55:00;15.00;;;2.80;;
22774;SDS011;11554;51.106;3.684;2022-11-20T16:00:00;14.80;;;3.70;;
22774;SDS011;11554;51.106;3.684;2022-11-20T16:05:00;14.80;;;3.70;;
22774;SDS011;11554;51.106;3.684;2022-11-20T16:10:00;18.30;;;3.90;;
22774;SDS011;11554;51.106;3.684;2022-11-20T16:15:00;18.30;;;3.90;;
22774;SDS011;11554;51.106;3.684;2022-11-20T16:20:00;10.50;;;2.70;;
22774;SDS011;11554;51.106;3.684;2022-11-20T16:25:00;10.50;;;2.70;;
22774;SDS011;11554;51.106;3.684;2022-11-20T16:30:00;17.30;;;5.50;;
22774;SDS011;11554;51.106;3.684;2022-11-20T16:35:00;17.30;;;5.50;;
22774;SDS011;11554;51.106;3.684;2022-11-20T16:40:00;17.80;;;3.90;;
22774;SDS011;11554;51.106;3.684;2022-11-20T16:45:00;17.80;;;3.90;;
22774;SDS011;11554;51.106;3.684;2022-11-20T16:50:00;13.50;;;2.60;;
22774;SDS011;11554;51.106;3.684;2022-11-20T16:55:00;13.50;;;2.60;;
22774;SDS011;11554;51.106;3.684;2022-11-20T17:00:00;15.50;;;3.50;;
22774;SDS011;11554;51.106;3.684;2022-11-20T17:05:00;15.50;;;3.50;;
22774;SDS011;11554;51.106;3.684;2022-11-20T17:10:00;14.70;;;3.10;;
22774;SDS011;11554;51.106;3.684;2022-11-20T17:15:00;14.70;;;3.10;;
22774;SDS011;11554;51.106;3.684;2022-11-20T17:20:00;18.30;;;3.40;;
22774;SDS011;11554;51.106;3.684;2022-11-20T17:25:00;18.30;;;3.40;;
22774;SDS011;11554;51.106;3.684;2022-11-20T17:30:00;17.40;;;3.80;;
22774;SDS011;11554;51.106;3.684;2022-11-20T17:35:00;17.40;;;3.80;;
22774;SDS011;11554;51.106;3.684;2022-11-20T17:40:00;18.40;;;4.20;;
22774;SDS011;11554;51.106;3.684;2022-11-20T17:45:00;18.40;;;4.20;;
22774;SDS011;11554;51.106;3.684;2022-11-20T17:50:00;26.10;;;4.70;;
22774;SDS011;11554;51.106;3.684;2022-11-20T17:55:00;26.10;;;4.70;;
22774;SDS011;11554;51.106;3.684;2022-11-20T18:00:00;28.30;;;6.90;;
22774;SDS011;11554;51.106;3.684;2022-11-20T18:05:00;28.30;;;6.90;;
22774;SDS011;11554;51.106;3.684;2022-11-20T18:10:00;35.80;;;8.60;;
22774;SDS011;11554;51.106;3.684;2022-11-20T18:15:00;35.80;;;8.60;;
22774;SDS011;11554;51.106;3.684;2022-11-20T18:20:00;15.80;;;3.60;;
22774;SDS011;11554;51.106;3.684;2022-11-20T18:25:00;15.80;;;3.60;;
22774;SDS011;11554;51.106;3.684;2022-11-20T18:30:00;14.00;;;3.10;;
22774;SDS011;11554;51.106;3.684;2022-11-20T18:35:00;14.00;;;3.10;;
22774;SDS011;11554;51.106;3.684;2022-11-20T18:40:00;14.50;;;3.50;;
22774;SDS011;11554;51.106;3.684;2022-11-20T18:45:00;14.50;;;3.50;;
22774;SDS011;11554;51.106;3.684;2022-11-20T18:50:01;22.80;;;5.80;;
22774;SDS011;11554;51.106;3.684;2022-11-20T18:55:00;22.80;;;5.80;;
22774;SDS011;11554;51.106;3.684;2022-11-20T19:00:00;23.10;;;6.40;;
22774;SDS011;11554;51.106;3.684;2022-11-20T19:05:00;23.10;;;6.40;;
22774;SDS011;11554;51.106;3.684;2022-11-20T19:10:00;20.70;;;4.80;;
22774;SDS011;11554;51.106;3.684;2022-11-20T19:15:00;20.70;;;4.80;;
22774;SDS011;11554;51.106;3.684;2022-11-20T19:20:00;20.60;;;5.10;;
22774;SDS011;11554;51.106;3.684;2022-11-20T19:25:00;20.60;;;5.10;;
22774;SDS011;11554;51.106;3.684;2022-11-20T19:30:00;22.10;;;6.00;;
22774;SDS011;11554;51.106;3.684;2022-11-20T19:35:00;22.10;;;6.00;;
22774;SDS011;11554;51.106;3.684;2022-11-20T19:40:00;17.80;;;4.80;;
22774;SDS011;11554;51.106;3.684;2022-11-20T19:45:00;17.80;;;4.80;;
22774;SDS011;11554;51.106;3.684;2022-11-20T19:50:00;19.20;;;5.10;;
22774;SDS011;11554;51.106;3.684;2022-11-20T19:55:00;19.20;;;5.10;;
22774;SDS011;11554;51.106;3.684;2022-11-20T20:00:00;20.60;;;5.90;;
22774;SDS011;11554;51.106;3.684;2022-11-20T20:05:00;20.60;;;5.90;;
22774;SDS011;11554;51.106;3.684;2022-11-20T20:10:00;19.30;;;4.70;;
22774;SDS011;11554;51.106;3.684;2022-11-20T20:15:00;19.30;;;4.70;;
22774;SDS011;11554;51.106;3.684;2022-11-20T20:20:00;20.50;;;5.80;;
22774;SDS011;11554;51.106;3.684;2022-11-20T20:25:00;20.50;;;5.80;;
22774;SDS011;11554;51.106;3.684;2022-11-20T20:30:00;18.60;;;5.00;;
22774;SDS011;11554;51.106;3.684;2022-11-20T20:35:00;18.60;;;5.00;;
22774;SDS011;11554;51.106;3.684;2022-11-20T20:40:00;18.50;;;4.90;;
22774;SDS011;11554;51.106;3.684;2022-11-20T20:45:00;18.50;;;4.90;;
22774;SDS011;11554;51.106;3.684;2022-11-20T20:50:00;17.00;;;4.90;;
22774;SDS011;11554;51.106;3.684;2022-11-20T20:55:00;17.00;;;4.90;;
22774;SDS011;11554;51.106;3.684;2022-11-20T21:00:00;18.10;;;4.30;;
22774;SDS011;11554;51.106;3.684;2022-11-20T21:05:00;18.10;;;4.30;;
22774;SDS011;11554;51.106;3.684;2022-11-20T21:10:00;15.50;;;4.30;;
22774;SDS011;11554;51.106;3.684;2022-11-20T21:15:00;15.50;;;4.30;;
22774;SDS011;11554;51.106;3.684;2022-11-20T21:20:00;18.10;;;4.40;;
22774;SDS011;11554;51.106;3.684;2022-11-20T21:25:00;18.10;;;4.40;;
22774;SDS011;11554;51.106;3.684;2022-11-20T21:30:00;13.00;;;3.10;;
22774;SDS011;11554;51.106;3.684;2022-11-20T21:35:00;13.00;;;3.10;;
22774;SDS011;11554;51.106;3.684;2022-11-20T21:40:00;6.50;;;1.60;;
22774;SDS011;11554;51.106;3.684;2022-11-20T21:45:00;6.50;;;1.60;;
22774;SDS011;11554;51.106;3.684;2022-11-20T21:50:00;6.00;;;1.40;;
22774;SDS011;11554;51.106;3.684;2022-11-20T21:55:00;6.00;;;1.40;;
22774;SDS011;11554;51.106;3.684;2022-11-20T22:00:00;8.40;;;2.00;;
22774;SDS011;11554;51.106;3.684;2022-11-20T22:05:00;8.40;;;2.00;;
22774;SDS011;11554;51.106;3.684;2022-11-20T22:10:00;12.20;;;2.40;;
22774;SDS011;11554;51.106;3.684;2022-11-20T22:15:00;12.20;;;2.40;;
22774;SDS011;11554;51.106;3.684;2022-11-20T22:20:00;6.00;;;1.30;;
22774;SDS011;11554;51.106;3.684;2022-11-20T22:25:00;6.00;;;1.30;;
22774;SDS011;11554;51.106;3.684;2022-11-20T22:30:00;6.30;;;1.60;;
22774;SDS011;11554;51.106;3.684;2022-11-20T22:35:00;6.30;;;1.60;;
22774;SDS011;11554;51.106;3.684;2022-11-20T22:40:00;13.50;;;3.10;;
22774;SDS011;11554;51.106;3.684;2022-11-20T22:45:00;13.50;;;3.10;;
22774;SDS011;11554;51.106;3.684;2022-11-20T22:50:00;11.10;;;3.50;;
22774;SDS011;11554;51.106;3.684;2022-11-20T22:55:00;11.10;;;3.50;;
22774;SDS011;11554;51.106;3.684;2022-11-20T23:00:00;11.90;;;2.80;;
22774;SDS011;11554;51.106;3.684;2022-11-20T23:05:00;11.90;;;2.80;;
22774;SDS011;11554;51.106;3.684;2022-11-20T23:10:00;10.20;;;2.80;;
22774;SDS011;11554;51.106;3.684;2022-11-20T23:15:00;10.20;;;2.80;;
22774;SDS011;11554;51.106;3.684;2022-11-20T23:20:00;9.00;;;2.70;;
22774;SDS011;11554;51.106;3.684;2022-11-20T23:25:00;9.00;;;2.70;;
22774;SDS011;11554;51.106;3.684;2022-11-20T23:30:00;8.90;;;2.90;;
22774;SDS011;11554;51.106;3.684;2022-11-20T23:35:00;8.90;;;2.90;;
22774;SDS011;11554;51.106;3.684;2022-11-20T23:40:00;11.80;;;2.50;;
22774;SDS011;11554;51.106;3.684;2022-11-20T23:45:00;11.80;;;2.50;;
22774;SDS011;11554;51.106;3.684;2022-11-20T23:50:00;8.80;;;3.00;;
22774;SDS011;11554;51.106;3.684;2022-11-20T23:55:00;8.80;;;3.00;;
